createdAt,value
2022-10-06T00:00:04.932Z,14.46
2022-10-06T00:01:04.999Z,14.44
2022-10-06T00:02:04.963Z,14.46
2022-10-06T00:03:04.876Z,14.49
2022-10-06T00:04:04.874Z,14.47
2022-10-06T00:05:04.893Z,14.50
2022-10-06T00:06:04.881Z,14.52
2022-10-06T00:07:04.940Z,14.50
2022-10-06T00:08:04.843Z,14.49
2022-10-06T00:09:04.834Z,14.50
2022-10-06T00:10:04.805Z,14.47
2022-10-06T00:11:04.845Z,14.49
2022-10-06T00:12:04.749Z,14.52
2022-10-06T00:13:04.788Z,14.47
2022-10-06T00:14:04.729Z,14.52
2022-10-06T00:15:04.812Z,14.49
2022-10-06T00:16:04.781Z,14.49
2022-10-06T00:17:04.702Z,14.47
2022-10-06T00:18:04.707Z,14.47
2022-10-06T00:19:04.713Z,14.49
2022-10-06T00:20:04.783Z,14.50
2022-10-06T00:21:04.679Z,14.49
2022-10-06T00:22:04.713Z,14.49
2022-10-06T00:23:04.659Z,14.49
2022-10-06T00:24:04.617Z,14.46
2022-10-06T00:25:04.578Z,14.47
2022-10-06T00:26:04.576Z,14.49
2022-10-06T00:27:04.567Z,14.52
2022-10-06T00:28:04.798Z,14.49
2022-10-06T00:29:04.807Z,14.52
2022-10-06T00:30:04.524Z,14.54
2022-10-06T00:31:04.537Z,14.52
2022-10-06T00:32:04.548Z,14.52
2022-10-06T00:33:04.551Z,14.52
2022-10-06T00:34:04.554Z,14.50
2022-10-06T00:35:04.464Z,14.50
2022-10-06T00:36:04.482Z,14.52
2022-10-06T00:37:04.445Z,14.52
2022-10-06T00:38:04.422Z,14.53
2022-10-06T00:39:04.407Z,14.53
2022-10-06T00:40:04.387Z,14.50
2022-10-06T00:41:04.462Z,14.53
2022-10-06T00:42:04.352Z,14.52
2022-10-06T00:43:04.376Z,14.53
2022-10-06T00:44:04.339Z,14.52
2022-10-06T00:45:04.336Z,14.52
2022-10-06T00:46:04.371Z,14.50
2022-10-06T00:47:04.333Z,14.50
2022-10-06T00:48:04.308Z,14.50
2022-10-06T00:49:04.262Z,14.50
2022-10-06T00:50:04.250Z,14.53
2022-10-06T00:51:04.243Z,14.52
2022-10-06T00:52:04.329Z,14.50
2022-10-06T00:53:04.259Z,14.50
2022-10-06T00:54:04.191Z,14.47
2022-10-06T00:55:04.239Z,14.46
2022-10-06T00:56:04.161Z,14.44
2022-10-06T00:57:04.212Z,14.39
2022-10-06T00:58:04.137Z,14.38
2022-10-06T00:59:04.128Z,14.37
2022-10-06T01:00:04.105Z,14.35
2022-10-06T01:01:04.184Z,14.31
2022-10-06T01:02:04.082Z,14.29
2022-10-06T01:03:04.122Z,14.27
2022-10-06T01:04:04.077Z,14.24
2022-10-06T01:05:04.058Z,14.21
2022-10-06T01:06:04.038Z,14.20
2022-10-06T01:07:04.026Z,14.17
2022-10-06T01:08:04.041Z,14.14
2022-10-06T01:09:04.043Z,14.13
2022-10-06T01:10:03.962Z,14.10
2022-10-06T01:11:03.960Z,14.04
2022-10-06T01:12:03.979Z,14.04
2022-10-06T01:13:03.961Z,14.06
2022-10-06T01:14:03.945Z,13.99
2022-10-06T01:15:03.958Z,14.01
2022-10-06T01:16:03.943Z,13.96
2022-10-06T01:17:03.945Z,13.96
2022-10-06T01:18:03.869Z,13.95
2022-10-06T01:19:03.879Z,13.95
2022-10-06T01:20:03.880Z,13.91
2022-10-06T01:21:03.907Z,13.92
2022-10-06T01:22:03.845Z,13.92
2022-10-06T01:23:03.840Z,13.91
2022-10-06T01:24:03.793Z,13.89
2022-10-06T01:25:03.786Z,13.87
2022-10-06T01:26:03.772Z,13.87
2022-10-06T01:27:03.753Z,13.83
2022-10-06T01:28:03.767Z,13.81
2022-10-06T01:29:03.722Z,13.83
2022-10-06T01:30:03.704Z,13.81
2022-10-06T01:31:03.755Z,13.80
2022-10-06T01:32:03.683Z,13.79
2022-10-06T01:33:03.670Z,13.79
2022-10-06T01:34:03.676Z,13.76
2022-10-06T01:35:04.029Z,13.76
2022-10-06T01:36:03.641Z,13.74
2022-10-06T01:37:03.635Z,13.71
2022-10-06T01:38:03.629Z,13.73
2022-10-06T01:39:03.621Z,13.67
2022-10-06T01:40:03.572Z,13.65
2022-10-06T01:41:03.579Z,13.62
2022-10-06T01:42:03.568Z,13.65
2022-10-06T01:43:03.553Z,13.61
2022-10-06T01:44:03.516Z,13.62
2022-10-06T01:45:03.535Z,13.61
2022-10-06T01:46:03.524Z,13.59
2022-10-06T01:47:03.500Z,13.59
2022-10-06T01:48:03.469Z,13.59
2022-10-06T01:49:03.461Z,13.58
2022-10-06T01:50:03.447Z,13.54
2022-10-06T01:51:03.455Z,13.56
2022-10-06T01:52:03.422Z,13.56
2022-10-06T01:53:03.421Z,13.54
2022-10-06T01:54:03.416Z,13.56
2022-10-06T01:55:03.378Z,13.56
2022-10-06T01:56:04.524Z,13.54
2022-10-06T01:57:03.394Z,13.52
2022-10-06T01:58:03.330Z,13.55
2022-10-06T01:59:03.349Z,13.51
2022-10-06T02:00:03.297Z,13.51
2022-10-06T02:01:03.308Z,13.52
2022-10-06T02:02:03.395Z,13.49
2022-10-06T02:03:03.273Z,13.49
2022-10-06T02:04:03.303Z,13.49
2022-10-06T02:05:03.265Z,13.47
2022-10-06T02:06:03.346Z,13.47
2022-10-06T02:07:03.265Z,13.46
2022-10-06T02:08:03.214Z,13.43
2022-10-06T02:09:03.292Z,13.44
2022-10-06T02:10:03.167Z,13.38
2022-10-06T02:11:03.158Z,13.40
2022-10-06T02:12:03.240Z,13.40
2022-10-06T02:13:03.149Z,13.38
2022-10-06T02:14:03.110Z,13.37
2022-10-06T02:15:03.237Z,13.37
2022-10-06T02:16:03.149Z,13.37
2022-10-06T02:17:03.138Z,13.37
2022-10-06T02:18:03.482Z,13.36
2022-10-06T02:19:03.081Z,13.37
2022-10-06T02:20:03.168Z,13.32
2022-10-06T02:21:03.055Z,13.37
2022-10-06T02:22:03.062Z,13.36
2022-10-06T02:23:02.982Z,13.36
2022-10-06T02:24:03.007Z,13.33
2022-10-06T02:25:03.041Z,13.33
2022-10-06T02:26:02.956Z,13.36
2022-10-06T02:27:02.946Z,13.37
2022-10-06T02:28:02.981Z,13.33
2022-10-06T02:29:02.921Z,13.37
2022-10-06T02:30:03.018Z,13.33
2022-10-06T02:31:02.962Z,13.36
2022-10-06T02:32:02.957Z,13.36
2022-10-06T02:33:02.856Z,13.37
2022-10-06T02:34:02.852Z,13.37
2022-10-06T02:35:02.857Z,13.33
2022-10-06T02:36:02.865Z,13.30
2022-10-06T02:37:02.908Z,13.30
2022-10-06T02:38:02.891Z,13.30
2022-10-06T02:39:02.771Z,13.29
2022-10-06T02:40:02.791Z,13.29
2022-10-06T02:41:02.821Z,13.29
2022-10-06T02:42:02.814Z,13.30
2022-10-06T02:43:02.712Z,13.29
2022-10-06T02:44:02.733Z,13.25
2022-10-06T02:45:02.740Z,13.25
2022-10-06T02:46:02.773Z,13.25
2022-10-06T02:47:02.647Z,13.22
2022-10-06T02:48:02.659Z,13.21
2022-10-06T02:49:02.640Z,13.20
2022-10-06T02:50:02.632Z,13.18
2022-10-06T02:51:02.652Z,13.17
2022-10-06T02:52:02.595Z,13.14
2022-10-06T02:53:02.665Z,13.12
2022-10-06T02:54:02.573Z,13.11
2022-10-06T02:55:02.573Z,13.09
2022-10-06T02:56:02.609Z,13.07
2022-10-06T02:57:02.509Z,13.04
2022-10-06T02:58:02.526Z,13.06
2022-10-06T02:59:02.522Z,13.03
2022-10-06T03:00:02.525Z,13.03
2022-10-06T03:01:02.501Z,13.03
2022-10-06T03:02:02.594Z,13.02
2022-10-06T03:03:02.505Z,13.00
2022-10-06T03:04:02.551Z,12.99
2022-10-06T03:05:02.406Z,12.99
2022-10-06T03:06:02.386Z,12.99
2022-10-06T03:07:02.403Z,12.96
2022-10-06T03:08:02.347Z,12.95
2022-10-06T03:09:02.347Z,12.92
2022-10-06T03:10:02.350Z,12.89
2022-10-06T03:11:02.357Z,12.88
2022-10-06T03:12:02.295Z,12.85
2022-10-06T03:13:02.313Z,12.84
2022-10-06T03:14:02.292Z,12.84
2022-10-06T03:15:02.289Z,12.82
2022-10-06T03:16:02.318Z,12.82
2022-10-06T03:17:02.307Z,12.81
2022-10-06T03:18:02.267Z,12.81
2022-10-06T03:19:02.254Z,12.81
2022-10-06T03:20:02.219Z,12.78
2022-10-06T03:21:02.203Z,12.78
2022-10-06T03:22:02.272Z,12.79
2022-10-06T03:23:02.168Z,12.71
2022-10-06T03:24:02.177Z,12.71
2022-10-06T03:25:02.186Z,12.69
2022-10-06T03:26:02.120Z,12.69
2022-10-06T03:27:02.125Z,12.69
2022-10-06T03:28:02.110Z,12.66
2022-10-06T03:29:02.079Z,12.64
2022-10-06T03:30:02.096Z,12.64
2022-10-06T03:31:03.329Z,12.60
2022-10-06T03:32:02.060Z,12.59
2022-10-06T03:33:02.031Z,12.57
2022-10-06T03:34:02.006Z,12.52
2022-10-06T03:35:02.021Z,12.51
2022-10-06T03:36:01.998Z,12.51
2022-10-06T03:37:02.005Z,12.48
2022-10-06T03:38:00.951Z,12.45
2022-10-06T03:39:01.987Z,12.45
2022-10-06T03:40:01.927Z,12.45
2022-10-06T03:41:02.099Z,12.42
2022-10-06T03:42:01.919Z,12.41
2022-10-06T03:43:01.977Z,12.41
2022-10-06T03:44:02.174Z,12.42
2022-10-06T03:45:01.927Z,12.39
2022-10-06T03:46:01.859Z,12.37
2022-10-06T03:47:01.888Z,12.39
2022-10-06T03:48:01.831Z,12.38
2022-10-06T03:49:01.816Z,12.34
2022-10-06T03:50:01.806Z,12.33
2022-10-06T03:51:01.794Z,12.33
2022-10-06T03:52:01.779Z,12.31
2022-10-06T03:53:01.760Z,12.33
2022-10-06T03:54:01.796Z,12.33
2022-10-06T03:55:01.743Z,12.34
2022-10-06T03:56:01.748Z,12.31
2022-10-06T03:57:01.704Z,12.30
2022-10-06T03:58:01.704Z,12.26
2022-10-06T03:59:01.683Z,12.26
2022-10-06T04:00:01.675Z,12.24
2022-10-06T04:01:01.703Z,12.24
2022-10-06T04:02:01.746Z,12.24
2022-10-06T04:03:01.663Z,12.23
2022-10-06T04:04:01.617Z,12.21
2022-10-06T04:05:01.703Z,12.23
2022-10-06T04:06:01.577Z,12.21
2022-10-06T04:07:01.585Z,12.20
2022-10-06T04:08:01.578Z,12.19
2022-10-06T04:09:01.559Z,12.19
2022-10-06T04:10:01.535Z,12.19
2022-10-06T04:11:01.547Z,12.20
2022-10-06T04:12:01.591Z,12.19
2022-10-06T04:13:01.503Z,12.19
2022-10-06T04:14:01.777Z,12.19
2022-10-06T04:15:01.549Z,12.20
2022-10-06T04:16:01.509Z,12.20
2022-10-06T04:17:01.505Z,12.15
2022-10-06T04:18:01.460Z,12.19
2022-10-06T04:19:01.437Z,12.16
2022-10-06T04:20:01.444Z,12.15
2022-10-06T04:21:01.436Z,12.15
2022-10-06T04:22:01.435Z,12.16
2022-10-06T04:23:01.378Z,12.15
2022-10-06T04:24:02.295Z,12.16
2022-10-06T04:25:01.351Z,12.13
2022-10-06T04:26:02.612Z,12.13
2022-10-06T04:27:01.319Z,12.16
2022-10-06T04:28:01.339Z,12.16
2022-10-06T04:29:01.277Z,12.13
2022-10-06T04:30:01.298Z,12.13
2022-10-06T04:31:01.289Z,12.13
2022-10-06T04:32:01.291Z,12.16
2022-10-06T04:33:01.255Z,12.15
2022-10-06T04:34:09.079Z,12.15
2022-10-06T04:35:01.252Z,12.15
2022-10-06T04:36:22.262Z,12.16
2022-10-06T04:37:01.190Z,12.15
2022-10-06T04:38:01.212Z,12.15
2022-10-06T04:39:01.180Z,12.12
2022-10-06T04:40:01.154Z,12.13
2022-10-06T04:41:01.139Z,12.13
2022-10-06T04:42:01.147Z,12.12
2022-10-06T04:43:01.094Z,12.11
2022-10-06T04:44:01.191Z,12.09
2022-10-06T04:45:01.085Z,12.08
2022-10-06T04:46:13.103Z,12.06
2022-10-06T04:47:01.127Z,12.06
2022-10-06T04:48:01.052Z,12.09
2022-10-06T04:49:01.065Z,12.08
2022-10-06T04:50:01.018Z,12.05
2022-10-06T04:51:01.028Z,12.06
2022-10-06T04:51:59.996Z,12.09
2022-10-06T04:53:01.029Z,12.09
2022-10-06T04:54:00.963Z,12.06
2022-10-06T04:55:00.947Z,12.08
2022-10-06T04:56:00.960Z,12.08
2022-10-06T04:57:00.977Z,12.05
2022-10-06T04:58:00.913Z,12.05
2022-10-06T04:59:00.967Z,12.02
2022-10-06T05:00:06.149Z,12.04
2022-10-06T05:01:01.053Z,12.04
2022-10-06T05:02:00.965Z,12.04
2022-10-06T05:03:00.880Z,12.04
2022-10-06T05:04:00.906Z,12.06
2022-10-06T05:05:00.865Z,12.04
2022-10-06T05:06:00.843Z,12.04
2022-10-06T05:07:00.811Z,12.05
2022-10-06T05:08:00.822Z,12.06
2022-10-06T05:09:00.826Z,12.09
2022-10-06T05:10:00.766Z,12.08
2022-10-06T05:11:00.803Z,12.08
2022-10-06T05:12:00.726Z,12.05
2022-10-06T05:13:00.721Z,12.08
2022-10-06T05:14:00.769Z,12.08
2022-10-06T05:15:00.749Z,12.06
2022-10-06T05:16:00.798Z,12.06
2022-10-06T05:17:00.659Z,12.09
2022-10-06T05:18:00.682Z,12.06
2022-10-06T05:19:00.790Z,12.06
2022-10-06T05:20:00.624Z,12.05
2022-10-06T05:21:05.758Z,12.09
2022-10-06T05:22:00.611Z,12.08
2022-10-06T05:23:00.623Z,12.09
2022-10-06T05:24:00.631Z,12.09
2022-10-06T05:25:00.598Z,12.08
2022-10-06T05:26:00.583Z,12.08
2022-10-06T05:27:01.886Z,12.09
2022-10-06T05:28:00.581Z,12.08
2022-10-06T05:29:00.554Z,12.11
2022-10-06T05:30:00.493Z,12.09
2022-10-06T05:31:00.491Z,12.08
2022-10-06T05:32:00.661Z,12.08
2022-10-06T05:33:00.536Z,12.05
2022-10-06T05:34:00.525Z,12.02
2022-10-06T05:35:00.445Z,12.04
2022-10-06T05:36:00.432Z,11.99
2022-10-06T05:37:00.420Z,11.97
2022-10-06T05:38:00.456Z,11.96
2022-10-06T05:39:00.409Z,11.99
2022-10-06T05:40:00.393Z,11.97
2022-10-06T05:41:00.367Z,11.96
2022-10-06T05:42:00.427Z,11.93
2022-10-06T05:43:00.317Z,11.96
2022-10-06T05:44:00.363Z,11.94
2022-10-06T05:45:00.320Z,11.96
2022-10-06T05:46:02.141Z,11.96
2022-10-06T05:47:00.307Z,11.89
2022-10-06T05:48:00.262Z,11.90
2022-10-06T05:49:00.297Z,11.90
2022-10-06T05:50:00.242Z,11.94
2022-10-06T05:51:00.225Z,11.90
2022-10-06T05:52:00.241Z,11.87
2022-10-06T05:53:00.197Z,11.90
2022-10-06T05:54:00.195Z,11.94
2022-10-06T05:55:00.186Z,11.90
2022-10-06T05:56:00.152Z,11.89
2022-10-06T05:57:00.338Z,11.90
2022-10-06T05:58:00.113Z,11.93
2022-10-06T05:59:00.137Z,11.90
2022-10-06T06:00:00.098Z,11.90
2022-10-06T06:01:00.112Z,11.93
2022-10-06T06:02:00.201Z,11.99
2022-10-06T06:03:00.141Z,11.99
2022-10-06T06:04:00.042Z,12.02
2022-10-06T06:05:00.044Z,12.01
2022-10-06T06:06:00.043Z,12.01
2022-10-06T06:07:00.119Z,12.02
2022-10-06T06:08:00.003Z,12.02
2022-10-06T06:09:00.019Z,12.01
2022-10-06T06:09:59.950Z,12.04
2022-10-06T06:10:59.978Z,12.04
2022-10-06T06:12:00.031Z,12.04
2022-10-06T06:12:59.981Z,12.05
2022-10-06T06:13:59.944Z,12.05
2022-10-06T06:14:59.892Z,12.05
2022-10-06T06:15:59.883Z,12.04
2022-10-06T06:16:59.923Z,12.02
2022-10-06T06:17:59.863Z,12.04
2022-10-06T06:18:59.977Z,12.06
2022-10-06T06:19:59.882Z,12.06
2022-10-06T06:20:59.842Z,12.05
2022-10-06T06:21:59.864Z,12.05
2022-10-06T06:22:59.841Z,12.04
2022-10-06T06:23:59.865Z,12.05
2022-10-06T06:24:59.762Z,12.06
2022-10-06T06:26:02.278Z,12.08
2022-10-06T06:26:59.729Z,12.09
2022-10-06T06:27:59.800Z,12.09
2022-10-06T06:28:59.797Z,12.09
2022-10-06T06:29:59.702Z,12.13
2022-10-06T06:30:59.728Z,12.12
2022-10-06T06:31:59.716Z,12.13
2022-10-06T06:32:59.656Z,12.13
2022-10-06T06:33:59.659Z,12.15
2022-10-06T06:34:59.631Z,12.13
2022-10-06T06:35:59.631Z,12.16
2022-10-06T06:37:05.365Z,12.15
2022-10-06T06:37:59.658Z,12.19
2022-10-06T06:38:59.630Z,12.21
2022-10-06T06:39:59.689Z,12.19
2022-10-06T06:40:59.550Z,12.20
2022-10-06T06:41:59.554Z,12.21
2022-10-06T06:42:59.573Z,12.23
2022-10-06T06:43:59.568Z,12.27
2022-10-06T06:44:59.512Z,12.26
2022-10-06T06:45:59.534Z,12.29
2022-10-06T06:46:59.491Z,12.33
2022-10-06T06:47:59.459Z,12.31
2022-10-06T06:48:59.462Z,12.34
2022-10-06T06:49:59.434Z,12.34
2022-10-06T06:50:59.436Z,12.38
2022-10-06T06:51:59.433Z,12.38
2022-10-06T06:52:59.397Z,12.39
2022-10-06T06:53:59.417Z,12.39
2022-10-06T06:54:59.373Z,12.38
2022-10-06T06:55:59.370Z,12.42
2022-10-06T06:56:59.344Z,12.42
2022-10-06T06:57:59.353Z,12.44
2022-10-06T06:58:59.568Z,12.42
2022-10-06T06:59:59.359Z,12.46
2022-10-06T07:00:59.339Z,12.45
2022-10-06T07:01:59.305Z,12.49
2022-10-06T07:02:59.307Z,12.49
2022-10-06T07:03:59.442Z,12.51
2022-10-06T07:04:59.242Z,12.49
2022-10-06T07:05:59.247Z,12.54
2022-10-06T07:06:59.229Z,12.56
2022-10-06T07:07:59.326Z,12.59
2022-10-06T07:08:59.316Z,12.60
2022-10-06T07:09:59.190Z,12.63
2022-10-06T07:10:59.181Z,12.66
2022-10-06T07:11:59.178Z,12.67
2022-10-06T07:12:59.218Z,12.69
2022-10-06T07:13:59.127Z,12.70
2022-10-06T07:14:59.101Z,12.71
2022-10-06T07:15:59.146Z,12.77
2022-10-06T07:16:59.116Z,12.77
2022-10-06T07:21:57.786Z,12.84
2022-10-06T07:23:19.752Z,12.84
2022-10-06T07:23:58.692Z,12.89
2022-10-06T07:25:13.968Z,12.88
2022-10-06T07:25:58.663Z,12.88
2022-10-06T07:26:58.680Z,12.93
2022-10-06T07:27:58.708Z,12.96
2022-10-06T07:28:59.705Z,12.95
2022-10-06T07:29:57.612Z,12.97
2022-10-06T07:30:58.684Z,12.99
2022-10-06T07:31:58.591Z,12.97
2022-10-06T07:32:58.556Z,13.02
2022-10-06T07:33:58.568Z,13.00
2022-10-06T07:34:58.541Z,13.04
2022-10-06T07:35:58.529Z,13.03
2022-10-06T07:37:02.702Z,13.11
2022-10-06T07:37:58.478Z,13.12
2022-10-06T07:38:58.528Z,13.14
2022-10-06T07:39:58.480Z,13.20
2022-10-06T07:41:58.490Z,13.22
2022-10-06T07:42:58.454Z,13.22
2022-10-06T07:43:58.399Z,13.27
2022-10-06T07:44:58.481Z,13.32
2022-10-06T07:45:58.423Z,13.36
2022-10-06T07:46:58.413Z,13.40
2022-10-06T07:47:58.353Z,13.40
2022-10-06T07:48:58.355Z,13.41
2022-10-06T07:49:58.346Z,13.43
2022-10-06T07:50:58.302Z,13.51
2022-10-06T07:51:58.339Z,13.51
2022-10-06T07:52:58.339Z,13.55
2022-10-06T07:53:58.296Z,13.56
2022-10-06T07:54:58.263Z,13.59
2022-10-06T07:55:58.250Z,13.61
2022-10-06T07:56:58.221Z,13.62
2022-10-06T07:57:58.310Z,13.65
2022-10-06T07:58:58.196Z,13.69
2022-10-06T08:00:02.909Z,13.73
2022-10-06T08:00:58.168Z,13.74
2022-10-06T08:01:58.225Z,13.77
2022-10-06T08:02:58.210Z,13.76
2022-10-06T08:03:58.138Z,13.80
2022-10-06T08:04:58.116Z,13.81
2022-10-06T08:05:58.121Z,13.81
2022-10-06T08:06:58.136Z,13.84
2022-10-06T08:07:58.078Z,13.87
2022-10-06T08:08:58.070Z,13.89
2022-10-06T08:09:58.054Z,13.91
2022-10-06T08:11:00.345Z,13.92
2022-10-06T08:11:58.058Z,13.94
2022-10-06T08:12:58.043Z,13.92
2022-10-06T08:13:57.990Z,13.95
2022-10-06T08:15:00.704Z,13.95
2022-10-06T08:15:58.025Z,13.95
2022-10-06T08:16:57.951Z,13.98
2022-10-06T08:17:58.074Z,13.98
2022-10-06T08:18:57.967Z,14.01
2022-10-06T08:19:57.997Z,14.04
2022-10-06T08:20:57.904Z,14.06
2022-10-06T08:22:02.339Z,14.10
2022-10-06T08:22:57.885Z,14.10
2022-10-06T08:23:57.871Z,14.10
2022-10-06T08:25:05.801Z,14.19
2022-10-06T08:25:57.897Z,14.16
2022-10-06T08:26:57.908Z,14.20
2022-10-06T08:27:57.857Z,14.24
2022-10-06T08:28:57.804Z,14.24
2022-10-06T08:29:57.845Z,14.25
2022-10-06T08:30:57.885Z,14.28
2022-10-06T08:31:57.814Z,14.28
2022-10-06T08:32:57.783Z,14.31
2022-10-06T08:33:57.729Z,14.37
2022-10-06T08:34:58.239Z,14.38
2022-10-06T08:35:57.710Z,14.42
2022-10-06T08:37:18.788Z,14.43
2022-10-06T08:37:57.719Z,14.47
2022-10-06T08:38:57.723Z,14.50
2022-10-06T08:39:57.669Z,14.53
2022-10-06T08:40:57.682Z,14.57
2022-10-06T08:41:57.656Z,14.56
2022-10-06T08:42:57.793Z,14.62
2022-10-06T08:43:57.639Z,14.64
2022-10-06T08:44:57.828Z,14.64
2022-10-06T08:45:57.828Z,14.68
2022-10-06T08:46:57.704Z,14.74
2022-10-06T08:47:57.542Z,14.78
2022-10-06T08:48:57.530Z,14.81
2022-10-06T08:49:58.083Z,14.83
2022-10-06T08:50:59.214Z,14.86
2022-10-06T08:51:57.542Z,14.90
2022-10-06T08:52:57.540Z,14.90
2022-10-06T08:53:57.471Z,14.91
2022-10-06T08:54:58.325Z,14.90
2022-10-06T08:55:57.463Z,14.95
2022-10-06T08:56:57.494Z,15.01
2022-10-06T08:57:57.465Z,15.03
2022-10-06T08:58:57.391Z,15.06
2022-10-06T08:59:57.848Z,15.09
2022-10-06T09:00:57.429Z,15.11
2022-10-06T09:01:57.436Z,15.13
2022-10-06T09:02:57.355Z,15.21
2022-10-06T09:03:57.362Z,15.24
2022-10-06T09:04:57.338Z,15.31
2022-10-06T09:05:57.329Z,15.35
2022-10-06T09:06:57.336Z,15.41
2022-10-06T09:07:57.311Z,15.43
2022-10-06T09:08:57.278Z,15.45
2022-10-06T09:09:57.695Z,15.48
2022-10-06T09:10:57.266Z,15.52
2022-10-06T09:11:57.276Z,15.51
2022-10-06T09:12:57.231Z,15.56
2022-10-06T09:13:57.225Z,15.59
2022-10-06T09:14:57.197Z,15.59
2022-10-06T09:15:57.224Z,15.61
2022-10-06T09:16:57.182Z,15.63
2022-10-06T09:17:57.137Z,15.66
2022-10-06T09:19:08.363Z,15.70
2022-10-06T09:19:57.523Z,15.78
2022-10-06T09:20:57.139Z,15.84
2022-10-06T09:21:57.144Z,15.92
2022-10-06T09:22:57.137Z,15.97
2022-10-06T09:23:57.103Z,15.96
2022-10-06T09:24:57.102Z,15.89
2022-10-06T09:25:57.227Z,15.86
2022-10-06T09:26:57.030Z,15.84
2022-10-06T09:27:57.039Z,15.76
2022-10-06T09:29:01.134Z,15.81
2022-10-06T09:29:57.330Z,15.81
2022-10-06T09:30:57.006Z,15.79
2022-10-06T09:31:57.024Z,15.86
2022-10-06T09:32:57.018Z,15.89
2022-10-06T09:33:57.003Z,15.99
2022-10-06T09:34:56.911Z,15.99
2022-10-06T09:35:56.903Z,16.01
2022-10-06T09:37:01.003Z,16.04
2022-10-06T09:37:56.989Z,16.03
2022-10-06T09:38:56.899Z,16.06
2022-10-06T09:39:57.147Z,16.04
2022-10-06T09:40:56.923Z,16.12
2022-10-06T09:41:56.819Z,16.16
2022-10-06T09:42:56.825Z,16.09
2022-10-06T09:43:56.789Z,16.06
2022-10-06T09:44:56.774Z,16.04
2022-10-06T09:45:56.837Z,16.07
2022-10-06T09:46:56.783Z,16.11
2022-10-06T09:47:56.775Z,16.15
2022-10-06T09:48:56.747Z,16.20
2022-10-06T09:49:55.993Z,16.14
2022-10-06T09:50:56.694Z,16.09
2022-10-06T09:51:56.698Z,16.16
2022-10-06T09:52:56.709Z,16.30
2022-10-06T09:53:56.684Z,16.38
2022-10-06T09:54:56.663Z,16.42
2022-10-06T09:55:56.616Z,16.44
2022-10-06T09:56:56.615Z,16.50
2022-10-06T09:57:56.709Z,16.60
2022-10-06T09:58:56.600Z,16.71
2022-10-06T09:59:56.991Z,16.75
2022-10-06T10:00:56.694Z,16.81
2022-10-06T10:01:56.757Z,16.89
2022-10-06T10:02:56.688Z,16.88
2022-10-06T10:04:18.690Z,16.92
2022-10-06T10:04:56.547Z,16.93
2022-10-06T10:05:56.512Z,16.98
2022-10-06T10:06:56.461Z,17.00
2022-10-06T10:07:56.448Z,16.99
2022-10-06T10:08:56.437Z,16.95
2022-10-06T10:09:56.832Z,16.90
2022-10-06T10:10:56.419Z,16.92
2022-10-06T10:11:56.395Z,16.96
2022-10-06T10:12:56.455Z,16.96
2022-10-06T10:13:56.398Z,16.93
2022-10-06T10:14:56.372Z,16.93
2022-10-06T10:15:56.431Z,16.88
2022-10-06T10:16:56.339Z,16.77
2022-10-06T10:17:56.400Z,16.75
2022-10-06T10:18:56.338Z,16.85
2022-10-06T10:19:56.628Z,16.90
2022-10-06T10:20:56.269Z,16.93
2022-10-06T10:21:56.249Z,17.03
2022-10-06T10:22:56.255Z,17.14
2022-10-06T10:23:56.230Z,17.18
2022-10-06T10:24:56.232Z,17.18
2022-10-06T10:25:56.209Z,17.23
2022-10-06T10:26:58.299Z,17.29
2022-10-06T10:27:56.177Z,17.35
2022-10-06T10:28:56.200Z,17.43
2022-10-06T10:29:56.369Z,17.36
2022-10-06T10:30:56.149Z,17.38
2022-10-06T10:31:56.142Z,17.44
2022-10-06T10:32:56.114Z,17.46
2022-10-06T10:34:11.772Z,17.40
2022-10-06T10:34:56.414Z,17.43
2022-10-06T10:35:56.053Z,17.46
2022-10-06T10:36:56.036Z,17.48
2022-10-06T10:37:56.035Z,17.44
2022-10-06T10:38:56.034Z,17.36
2022-10-06T10:39:56.031Z,17.28
2022-10-06T10:40:56.024Z,17.17
2022-10-06T10:41:56.051Z,17.13
2022-10-06T10:42:55.968Z,17.10
2022-10-06T10:43:57.792Z,17.11
2022-10-06T10:44:56.218Z,17.08
2022-10-06T10:45:55.919Z,17.04
2022-10-06T10:46:55.954Z,17.07
2022-10-06T10:47:55.952Z,17.14
2022-10-06T10:48:55.887Z,17.11
2022-10-06T10:49:55.857Z,17.17
2022-10-06T10:50:55.870Z,17.23
2022-10-06T10:51:55.882Z,17.36
2022-10-06T10:52:55.836Z,17.47
2022-10-06T10:53:55.832Z,17.53
2022-10-06T10:54:56.153Z,17.64
2022-10-06T10:55:55.797Z,17.74
2022-10-06T10:56:55.852Z,17.79
2022-10-06T10:57:55.785Z,17.84
2022-10-06T10:58:55.747Z,17.87
2022-10-06T10:59:55.728Z,17.89
2022-10-06T11:00:55.740Z,17.89
2022-10-06T11:01:55.796Z,17.91
2022-10-06T11:02:55.722Z,17.97
2022-10-06T11:03:55.685Z,18.03
2022-10-06T11:04:56.052Z,18.04
2022-10-06T11:05:55.723Z,18.10
2022-10-06T11:06:55.637Z,18.21
2022-10-06T11:07:55.656Z,18.28
2022-10-06T11:08:55.633Z,18.28
2022-10-06T11:09:55.623Z,18.24
2022-10-06T11:10:55.587Z,18.12
2022-10-06T11:11:55.601Z,17.88
2022-10-06T11:12:55.567Z,17.84
2022-10-06T11:13:55.558Z,17.81
2022-10-06T11:14:55.897Z,17.87
2022-10-06T11:15:55.556Z,17.84
2022-10-06T11:16:55.506Z,17.91
2022-10-06T11:17:55.537Z,17.91
2022-10-06T11:18:55.525Z,17.84
2022-10-06T11:19:55.568Z,17.71
2022-10-06T11:20:55.444Z,17.76
2022-10-06T11:21:55.498Z,17.79
2022-10-06T11:22:55.869Z,17.81
2022-10-06T11:23:55.428Z,17.70
2022-10-06T11:24:55.558Z,17.63
2022-10-06T11:25:55.369Z,17.54
2022-10-06T11:26:55.367Z,17.62
2022-10-06T11:27:55.590Z,17.59
2022-10-06T11:28:55.417Z,17.59
2022-10-06T11:29:55.585Z,17.74
2022-10-06T11:30:55.295Z,17.82
2022-10-06T11:31:55.353Z,17.92
2022-10-06T11:32:55.393Z,18.03
2022-10-06T11:33:55.263Z,18.04
2022-10-06T11:34:55.286Z,18.02
2022-10-06T11:35:55.243Z,17.97
2022-10-06T11:36:55.238Z,17.94
2022-10-06T11:37:55.213Z,17.92
2022-10-06T11:38:54.202Z,18.06
2022-10-06T11:39:55.266Z,18.12
2022-10-06T11:40:55.163Z,18.27
2022-10-06T11:41:55.218Z,18.31
2022-10-06T11:42:55.174Z,18.31
2022-10-06T11:43:55.148Z,18.37
2022-10-06T11:44:55.150Z,18.27
2022-10-06T11:45:55.255Z,18.15
2022-10-06T11:46:55.087Z,18.13
2022-10-06T11:47:55.076Z,18.21
2022-10-06T11:48:55.091Z,18.33
2022-10-06T11:49:55.044Z,18.42
2022-10-06T11:50:55.041Z,18.46
2022-10-06T11:51:59.110Z,18.57
2022-10-06T11:52:55.038Z,18.68
2022-10-06T11:53:55.004Z,18.73
2022-10-06T11:54:54.972Z,18.76
2022-10-06T11:55:54.976Z,18.79
2022-10-06T11:56:54.955Z,18.90
2022-10-06T11:57:54.961Z,18.95
2022-10-06T11:58:54.935Z,18.98
2022-10-06T11:59:54.927Z,18.99
2022-10-06T12:00:54.896Z,19.08
2022-10-06T12:01:55.155Z,19.05
2022-10-06T12:02:54.965Z,19.05
2022-10-06T12:03:54.879Z,18.97
2022-10-06T12:04:54.867Z,18.98
2022-10-06T12:05:56.573Z,18.99
2022-10-06T12:06:54.838Z,18.98
2022-10-06T12:07:54.818Z,18.82
2022-10-06T12:08:54.794Z,18.80
2022-10-06T12:09:54.782Z,18.84
2022-10-06T12:10:54.784Z,18.82
2022-10-06T12:11:54.775Z,18.87
2022-10-06T12:13:06.576Z,18.90
2022-10-06T12:15:12.137Z,18.79
2022-10-06T12:17:10.602Z,18.76
2022-10-06T12:17:54.704Z,18.77
2022-10-06T12:18:54.669Z,18.76
2022-10-06T12:19:54.679Z,18.65
2022-10-06T12:21:15.629Z,18.62
2022-10-06T12:21:54.643Z,18.65
2022-10-06T12:22:54.606Z,18.70
2022-10-06T12:23:54.585Z,18.70
2022-10-06T12:24:54.567Z,18.73
2022-10-06T12:25:54.629Z,18.77
2022-10-06T12:26:54.549Z,18.80
2022-10-06T12:27:54.523Z,18.87
2022-10-06T12:28:54.543Z,18.86
2022-10-06T12:29:54.571Z,18.83
2022-10-06T12:30:54.589Z,18.77
2022-10-06T12:32:15.490Z,18.77
2022-10-06T12:32:54.462Z,18.74
2022-10-06T12:33:54.482Z,18.76
2022-10-06T12:34:54.428Z,18.80
2022-10-06T12:35:54.437Z,18.83
2022-10-06T12:36:54.398Z,18.92
2022-10-06T12:37:55.019Z,18.97
2022-10-06T12:38:54.386Z,18.95
2022-10-06T12:39:54.374Z,19.01
2022-10-06T12:40:54.404Z,18.99
2022-10-06T12:41:54.381Z,18.92
2022-10-06T12:42:54.328Z,18.83
2022-10-06T12:43:54.418Z,18.83
2022-10-06T12:44:57.322Z,18.77
2022-10-06T12:45:54.379Z,18.80
2022-10-06T12:46:54.338Z,18.84
2022-10-06T12:47:54.277Z,18.80
2022-10-06T12:48:54.249Z,18.84
2022-10-06T12:49:54.231Z,18.90
2022-10-06T12:50:54.302Z,18.90
2022-10-06T12:51:57.786Z,18.92
2022-10-06T12:52:54.203Z,18.90
2022-10-06T12:53:54.188Z,18.92
2022-10-06T12:54:54.206Z,18.92
2022-10-06T12:55:54.177Z,18.95
2022-10-06T12:56:56.621Z,18.92
2022-10-06T12:58:15.306Z,18.94
2022-10-06T12:58:54.188Z,18.95